createdAt,value
2018-07-30T00:02:05.583Z,48.10
2018-07-30T00:04:33.323Z,48.40
2018-07-30T00:07:02.580Z,47.90
2018-07-30T00:09:32.300Z,48.00
2018-07-30T00:12:00.058Z,48.60
2018-07-30T00:14:28.262Z,48.80
2018-07-30T00:16:56.097Z,48.90
2018-07-30T00:19:23.833Z,48.60
2018-07-30T00:21:52.064Z,48.40
2018-07-30T00:24:19.719Z,48.80
2018-07-30T00:26:47.433Z,48.80
2018-07-30T00:29:15.874Z,49.70
2018-07-30T00:31:43.576Z,49.30
2018-07-30T00:34:11.269Z,50.00
2018-07-30T00:36:39.109Z,49.70
2018-07-30T00:39:09.228Z,50.20
2018-07-30T00:41:36.914Z,49.10
2018-07-30T00:44:04.689Z,49.20
2018-07-30T00:46:34.310Z,49.80
2018-07-30T00:49:01.904Z,50.10
2018-07-30T00:51:29.741Z,49.90
2018-07-30T00:53:59.579Z,50.20
2018-07-30T00:56:27.935Z,50.70
2018-07-30T00:58:55.159Z,51.20
2018-07-30T01:01:22.256Z,51.30
2018-07-30T01:03:49.993Z,51.30
2018-07-30T01:06:17.787Z,51.20
2018-07-30T01:08:46.641Z,51.20
2018-07-30T01:11:14.395Z,51.20
2018-07-30T01:13:42.055Z,51.20
2018-07-30T01:16:09.768Z,51.20
2018-07-30T01:18:37.431Z,51.00
2018-07-30T01:21:05.281Z,52.10
2018-07-30T01:23:32.971Z,51.00
2018-07-30T01:26:06.273Z,51.70
2018-07-30T01:28:40.030Z,52.10
2018-07-30T01:31:07.949Z,52.20
2018-07-30T01:33:36.979Z,52.70
2018-07-30T01:36:05.095Z,53.20
2018-07-30T01:38:32.822Z,52.70
2018-07-30T01:41:00.521Z,52.80
2018-07-30T01:43:28.233Z,52.80
2018-07-30T01:45:55.993Z,53.40
2018-07-30T01:48:23.718Z,52.70
2018-07-30T01:50:51.551Z,54.00
2018-07-30T01:53:19.207Z,53.10
2018-07-30T01:55:46.977Z,53.20
2018-07-30T01:58:14.645Z,53.30
2018-07-30T02:00:43.475Z,53.60
2018-07-30T02:03:11.162Z,54.10
2018-07-30T02:05:41.224Z,53.80
2018-07-30T02:08:09.174Z,53.40
2018-07-30T02:10:41.242Z,53.50
2018-07-30T02:13:09.875Z,54.20
2018-07-30T02:15:37.641Z,54.10
2018-07-30T02:18:11.227Z,54.30
2018-07-30T02:20:43.000Z,54.30
2018-07-30T02:23:10.731Z,55.00
2018-07-30T02:25:39.235Z,54.40
2018-07-30T02:28:06.936Z,54.80
2018-07-30T02:30:34.690Z,55.10
2018-07-30T02:33:02.565Z,55.20
2018-07-30T02:35:30.257Z,55.50
2018-07-30T02:37:57.991Z,55.40
2018-07-30T02:40:26.740Z,56.10
2018-07-30T02:42:55.994Z,56.00
2018-07-30T02:48:05.537Z,56.00
2018-07-30T02:50:38.028Z,56.30
2018-07-30T02:53:05.779Z,56.40
2018-07-30T02:55:33.451Z,56.20
2018-07-30T02:58:01.202Z,56.30
2018-07-30T03:00:37.965Z,56.40
2018-07-30T03:03:05.665Z,56.50
2018-07-30T03:05:33.391Z,56.90
2018-07-30T03:08:01.099Z,57.00
2018-07-30T03:10:29.912Z,57.50
2018-07-30T03:13:05.967Z,57.80
2018-07-30T03:15:34.662Z,57.60
2018-07-30T03:18:02.339Z,57.70
2018-07-30T03:20:30.048Z,57.50
2018-07-30T03:22:57.790Z,57.80
2018-07-30T03:25:25.458Z,57.50
2018-07-30T03:27:53.072Z,57.80
2018-07-30T03:30:20.810Z,57.60
2018-07-30T03:32:48.672Z,58.20
2018-07-30T03:38:10.182Z,58.20
2018-07-30T03:40:37.897Z,58.00
2018-07-30T03:43:05.592Z,57.70
2018-07-30T03:45:33.261Z,58.40
2018-07-30T03:48:00.977Z,57.40
2018-07-30T03:50:28.844Z,57.70
2018-07-30T03:52:56.623Z,57.50
2018-07-30T03:55:26.145Z,57.80
2018-07-30T03:57:53.910Z,57.70
2018-07-30T04:00:25.091Z,57.90
2018-07-30T04:02:52.845Z,57.80
2018-07-30T04:05:20.637Z,57.50
2018-07-30T04:07:48.338Z,57.30
2018-07-30T04:10:16.056Z,57.10
2018-07-30T04:12:43.734Z,57.20
2018-07-30T04:15:12.473Z,57.10
2018-07-30T04:17:40.156Z,57.00
2018-07-30T04:20:08.930Z,57.00
2018-07-30T04:22:36.807Z,57.10
2018-07-30T04:25:04.670Z,56.90
2018-07-30T04:27:32.551Z,56.80
2018-07-30T04:30:00.292Z,56.90
2018-07-30T04:32:30.550Z,56.40
2018-07-30T04:34:58.352Z,56.20
2018-07-30T04:37:31.787Z,55.90
2018-07-30T04:39:59.566Z,56.00
2018-07-30T04:42:30.074Z,56.00
2018-07-30T04:44:57.889Z,55.50
2018-07-30T04:47:37.849Z,56.20
2018-07-30T04:50:05.662Z,55.20
2018-07-30T04:52:33.428Z,55.20
2018-07-30T04:55:02.439Z,55.40
2018-07-30T04:57:30.226Z,55.20
2018-07-30T04:59:57.976Z,55.10
2018-07-30T05:02:25.709Z,55.00
2018-07-30T05:04:53.399Z,55.30
2018-07-30T05:07:21.710Z,55.20
2018-07-30T05:09:55.904Z,55.10
2018-07-30T05:12:23.524Z,55.40
2018-07-30T05:14:51.428Z,54.90
2018-07-30T05:17:21.590Z,54.80
2018-07-30T05:19:49.312Z,54.50
2018-07-30T05:22:17.013Z,54.40
2018-07-30T05:24:47.212Z,54.00
2018-07-30T05:27:15.088Z,53.80
2018-07-30T05:29:47.065Z,53.90
2018-07-30T05:32:16.391Z,53.50
2018-07-30T05:35:03.575Z,52.20
2018-07-30T05:37:31.696Z,52.20
2018-07-30T05:40:00.437Z,52.40
2018-07-30T05:45:26.657Z,51.50
2018-07-30T05:47:54.394Z,50.20
2018-07-30T05:50:38.071Z,50.10
2018-07-30T05:53:07.141Z,50.10
2018-07-30T06:01:12.148Z,48.90
2018-07-30T06:03:43.053Z,49.60
2018-07-30T06:06:11.066Z,48.60
2018-07-30T06:08:39.280Z,48.90
2018-07-30T06:11:09.754Z,48.50
2018-07-30T06:13:43.962Z,48.90
2018-07-30T06:25:11.449Z,46.20
2018-07-30T06:27:41.361Z,46.00
2018-07-30T06:30:09.653Z,45.40
2018-07-30T06:32:40.011Z,45.70
2018-07-30T06:35:11.715Z,44.20
2018-07-30T06:47:10.169Z,42.90
2018-07-30T06:49:46.539Z,42.50
2018-07-30T06:52:14.456Z,42.40
2018-07-30T06:54:42.490Z,41.30
2018-07-30T06:57:13.865Z,40.50
2018-07-30T06:59:41.687Z,39.70
2018-07-30T07:02:10.106Z,40.20
2018-07-30T07:04:42.285Z,40.20
2018-07-30T07:07:10.156Z,39.50
2018-07-30T07:09:38.671Z,39.10
2018-07-30T07:12:11.431Z,38.50
2018-07-30T07:17:43.754Z,37.40
2018-07-30T07:20:14.060Z,37.00
2018-07-30T07:22:41.874Z,37.90
2018-07-30T07:25:10.699Z,37.20
2018-07-30T07:27:49.661Z,36.50
2018-07-30T07:30:17.417Z,36.20
2018-07-30T07:32:45.203Z,36.10
2018-07-30T07:35:13.142Z,35.60
2018-07-30T07:37:40.923Z,35.60
2018-07-30T07:40:09.193Z,35.70
2018-07-30T07:42:39.269Z,35.80
2018-07-30T07:45:09.986Z,35.80
2018-07-30T07:47:39.546Z,36.00
2018-07-30T07:50:09.323Z,36.00
2018-07-30T07:52:40.647Z,35.00
2018-07-30T07:55:09.779Z,34.00
2018-07-30T07:57:40.175Z,33.60
2018-07-30T08:00:11.295Z,33.50
2018-07-30T08:05:43.185Z,34.10
2018-07-30T08:08:11.324Z,33.10
2018-07-30T08:10:40.796Z,32.90
2018-07-30T08:13:10.588Z,32.60
2018-07-30T08:15:40.644Z,32.50
2018-07-30T08:18:11.773Z,32.70
2018-07-30T08:20:40.724Z,31.70
2018-07-30T08:23:08.928Z,31.10
2018-07-30T08:25:37.343Z,31.50
2018-07-30T08:28:05.285Z,31.30
2018-07-30T08:30:33.451Z,30.40
2018-07-30T08:33:01.756Z,29.80
2018-07-30T08:35:29.692Z,29.50
2018-07-30T08:37:58.907Z,29.50
2018-07-30T08:40:27.109Z,29.70
2018-07-30T08:42:56.139Z,29.30
2018-07-30T08:45:24.746Z,28.80
2018-07-30T08:47:52.882Z,28.20
2018-07-30T08:50:20.675Z,28.90
2018-07-30T08:52:48.505Z,28.70
2018-07-30T08:55:17.566Z,27.70
2018-07-30T08:57:45.328Z,28.30
2018-07-30T09:00:14.383Z,27.80
2018-07-30T09:02:42.492Z,27.90
2018-07-30T09:05:10.310Z,28.10
2018-07-30T09:07:38.526Z,28.30
2018-07-30T09:10:07.114Z,28.00
2018-07-30T09:12:35.869Z,28.00
2018-07-30T09:15:03.927Z,28.00
2018-07-30T09:17:33.255Z,27.20
2018-07-30T09:20:02.058Z,27.10
2018-07-30T09:22:38.390Z,26.60
2018-07-30T09:25:07.687Z,27.00
2018-07-30T09:27:36.422Z,25.90
2018-07-30T09:30:05.190Z,25.60
2018-07-30T09:32:33.673Z,24.80
2018-07-30T09:35:03.765Z,25.30
2018-07-30T09:37:50.580Z,24.40
2018-07-30T09:40:21.138Z,24.70
2018-07-30T09:42:52.273Z,24.40
2018-07-30T09:45:20.758Z,24.50
2018-07-30T09:47:52.832Z,23.50
2018-07-30T09:50:20.952Z,23.50
2018-07-30T09:52:49.551Z,23.30
2018-07-30T09:55:18.213Z,23.60
2018-07-30T09:58:00.324Z,23.20
2018-07-30T10:00:34.177Z,23.00
2018-07-30T10:03:02.735Z,21.90
2018-07-30T10:05:32.487Z,22.60
2018-07-30T10:08:11.611Z,21.90
2018-07-30T10:10:40.322Z,21.80
2018-07-30T10:13:10.021Z,20.80
2018-07-30T10:18:43.061Z,20.90
2018-07-30T10:21:11.153Z,19.90
2018-07-30T10:30:11.649Z,19.00
2018-07-30T11:00:05.462Z,17.00
2018-07-30T11:23:46.736Z,15.20
2018-07-30T11:26:14.701Z,14.90
2018-07-30T11:34:41.420Z,14.30
2018-07-30T11:37:10.667Z,13.90
2018-07-30T11:42:41.543Z,14.00
2018-07-30T11:45:10.564Z,14.00
2018-07-30T11:47:39.280Z,13.60
2018-07-30T11:50:09.806Z,13.90
2018-07-30T11:52:39.599Z,13.80
2018-07-30T11:55:11.288Z,13.70
2018-07-30T11:57:40.323Z,13.90
2018-07-30T12:00:09.951Z,14.00
2018-07-30T12:02:40.927Z,13.80
2018-07-30T12:05:08.840Z,14.80
2018-07-30T12:07:36.799Z,13.90
2018-07-30T12:10:04.795Z,13.60
2018-07-30T12:12:33.080Z,12.60
2018-07-30T12:15:00.818Z,12.90
2018-07-30T12:17:28.724Z,13.10
2018-07-30T12:20:06.379Z,12.20
2018-07-30T12:22:34.593Z,10.80
2018-07-30T12:28:03.592Z,10.00
2018-07-30T12:30:34.027Z,9.30
2018-07-30T12:33:03.156Z,10.00
2018-07-30T12:35:32.826Z,9.30
2018-07-30T12:38:12.360Z,8.90
2018-07-30T12:40:41.063Z,8.90
2018-07-30T12:43:09.858Z,8.50
2018-07-30T12:45:43.615Z,7.40
2018-07-30T12:48:12.745Z,7.50
2018-07-30T12:50:41.087Z,7.40
2018-07-30T12:53:28.656Z,7.70
2018-07-30T12:55:57.180Z,6.80
2018-07-30T12:58:26.816Z,6.90
2018-07-30T13:00:57.941Z,7.50
2018-07-30T13:03:26.931Z,7.10
2018-07-30T13:05:59.731Z,6.90
2018-07-30T13:08:27.954Z,7.00
2018-07-30T13:10:56.132Z,7.40
2018-07-30T13:13:23.901Z,7.50
2018-07-30T13:15:51.703Z,6.70
2018-07-30T13:18:20.659Z,7.20
2018-07-30T13:20:49.497Z,7.40
2018-07-30T13:23:17.635Z,6.50
2018-07-30T13:25:45.577Z,5.70
2018-07-30T13:28:13.559Z,6.80
2018-07-30T13:30:41.864Z,7.10
2018-07-30T13:33:09.770Z,7.00
2018-07-30T13:35:38.343Z,7.00
2018-07-30T13:38:06.675Z,6.90
2018-07-30T13:40:35.419Z,7.30
2018-07-30T13:43:03.160Z,5.50
2018-07-30T13:45:30.478Z,5.20
2018-07-30T13:47:58.441Z,5.80
2018-07-30T13:50:26.176Z,6.80
2018-07-30T13:52:53.872Z,6.90
2018-07-30T13:55:21.531Z,6.80
2018-07-30T13:57:49.439Z,7.30
2018-07-30T14:00:18.174Z,7.70
2018-07-30T14:02:51.620Z,7.10
2018-07-30T14:05:40.002Z,7.40
2018-07-30T14:08:10.076Z,7.90
2018-07-30T14:10:40.762Z,7.50
2018-07-30T14:13:08.937Z,7.60
2018-07-30T14:15:38.052Z,7.40
2018-07-30T14:18:06.575Z,7.70
2018-07-30T14:20:35.061Z,9.10
2018-07-30T14:23:06.279Z,8.50
2018-07-30T14:25:34.444Z,8.70
2018-07-30T14:28:02.164Z,9.00
2018-07-30T14:30:30.344Z,8.80
2018-07-30T14:32:58.335Z,9.00
2018-07-30T14:35:26.457Z,9.30
2018-07-30T14:37:56.519Z,8.70
2018-07-30T14:40:24.294Z,8.70
2018-07-30T14:42:52.473Z,9.00
2018-07-30T14:45:20.423Z,8.80
2018-07-30T14:47:50.019Z,9.20
2018-07-30T14:50:19.427Z,9.10
2018-07-30T14:52:47.613Z,9.10
2018-07-30T14:55:15.471Z,9.10
2018-07-30T14:57:44.845Z,9.00
2018-07-30T15:00:14.454Z,9.20
2018-07-30T15:02:42.849Z,9.10
2018-07-30T15:05:11.096Z,8.80
2018-07-30T15:07:39.040Z,9.10
2018-07-30T15:10:06.960Z,9.40
2018-07-30T15:12:35.332Z,9.80
2018-07-30T15:15:03.427Z,9.90
2018-07-30T15:17:31.491Z,9.40
2018-07-30T15:20:00.154Z,9.80
2018-07-30T15:22:29.606Z,9.80
2018-07-30T15:24:58.495Z,9.70
2018-07-30T15:27:26.538Z,9.60
2018-07-30T15:29:56.612Z,9.80
2018-07-30T15:32:25.049Z,9.80
2018-07-30T15:34:54.974Z,9.80
2018-07-30T15:37:24.001Z,10.70
2018-07-30T15:39:52.352Z,9.70
2018-07-30T15:42:22.334Z,9.70
2018-07-30T15:44:50.635Z,9.60
2018-07-30T15:47:18.625Z,9.70
2018-07-30T15:49:46.450Z,10.50
2018-07-30T15:52:15.242Z,9.60
2018-07-30T15:54:46.250Z,9.80
2018-07-30T15:57:14.439Z,10.10
2018-07-30T15:59:42.391Z,10.00
2018-07-30T16:02:10.936Z,10.50
2018-07-30T16:04:39.941Z,10.50
2018-07-30T16:07:08.040Z,10.80
2018-07-30T16:09:38.040Z,10.90
2018-07-30T16:12:05.994Z,10.70
2018-07-30T16:14:34.920Z,11.10
2018-07-30T16:17:04.811Z,11.00
2018-07-30T16:19:33.154Z,11.30
2018-07-30T16:22:03.985Z,11.20
2018-07-30T16:24:32.070Z,11.00
2018-07-30T16:27:02.720Z,11.50
2018-07-30T16:29:30.998Z,11.70
2018-07-30T16:31:59.511Z,11.50
2018-07-30T16:34:27.620Z,11.20
2018-07-30T16:36:56.469Z,11.60
2018-07-30T16:39:25.040Z,11.50
2018-07-30T16:41:53.930Z,11.50
2018-07-30T16:44:23.338Z,11.30
2018-07-30T16:46:52.051Z,11.70
2018-07-30T16:49:24.349Z,12.40
2018-07-30T16:51:52.523Z,12.00
2018-07-30T16:54:20.930Z,11.60
2018-07-30T16:56:48.986Z,11.70
2018-07-30T16:59:19.183Z,12.10
2018-07-30T17:02:02.161Z,11.70
2018-07-30T17:04:30.233Z,11.20
2018-07-30T17:06:58.793Z,11.60
2018-07-30T17:09:26.684Z,11.60
2018-07-30T17:11:55.164Z,11.50
2018-07-30T17:14:24.658Z,11.50
2018-07-30T17:16:53.110Z,11.60
2018-07-30T17:19:21.182Z,11.60
2018-07-30T17:21:49.684Z,11.60
2018-07-30T17:24:17.525Z,12.20
2018-07-30T17:26:45.327Z,12.20
2018-07-30T17:32:07.928Z,12.10
2018-07-30T17:34:35.836Z,12.10
2018-07-30T17:37:05.124Z,12.80
2018-07-30T17:39:37.303Z,12.80
2018-07-30T17:42:05.309Z,12.70
2018-07-30T17:44:33.482Z,12.10
2018-07-30T17:47:17.638Z,12.20
2018-07-30T17:49:45.799Z,12.50
2018-07-30T17:52:14.018Z,13.30
2018-07-30T17:54:42.984Z,13.30
2018-07-30T17:57:10.818Z,14.20
2018-07-30T17:59:41.659Z,14.20
2018-07-30T18:02:15.307Z,14.20
2018-07-30T18:04:43.232Z,14.50
2018-07-30T18:07:11.437Z,14.90
2018-07-30T18:09:39.699Z,15.00
2018-07-30T18:12:07.552Z,15.70
2018-07-30T18:14:35.216Z,16.20
2018-07-30T18:17:03.376Z,16.60
2018-07-30T18:19:31.065Z,16.70
2018-07-30T18:21:59.002Z,16.90
2018-07-30T18:24:26.859Z,16.80
2018-07-30T18:26:54.753Z,17.60
2018-07-30T18:29:22.728Z,17.80
2018-07-30T18:31:50.972Z,17.90
2018-07-30T18:34:18.894Z,17.40
2018-07-30T18:36:46.710Z,17.70
2018-07-30T18:39:14.725Z,18.10
2018-07-30T18:41:42.536Z,18.40
2018-07-30T18:44:10.341Z,18.80
2018-07-30T18:46:38.235Z,19.10
2018-07-30T18:49:06.004Z,19.40
2018-07-30T18:51:33.681Z,19.80
2018-07-30T18:54:05.769Z,20.60
2018-07-30T18:56:33.603Z,20.60
2018-07-30T18:59:01.316Z,20.60
2018-07-30T19:01:29.110Z,21.50
2018-07-30T19:03:57.520Z,21.70
2018-07-30T19:06:25.198Z,22.30
2018-07-30T19:08:52.869Z,22.40
2018-07-30T19:11:20.627Z,23.10
2018-07-30T19:13:48.401Z,23.70
2018-07-30T19:16:16.454Z,24.40
2018-07-30T19:18:44.243Z,24.20
2018-07-30T19:21:12.114Z,24.20
2018-07-30T19:23:40.017Z,24.30
2018-07-30T19:26:11.053Z,24.60
2018-07-30T19:28:39.030Z,24.80
2018-07-30T19:31:06.841Z,25.40
2018-07-30T19:33:35.317Z,25.60
2018-07-30T19:36:03.227Z,26.10
2018-07-30T19:38:31.255Z,26.40
2018-07-30T19:40:58.923Z,26.60
2018-07-30T19:43:26.589Z,26.60
2018-07-30T19:45:54.382Z,27.00
2018-07-30T19:48:22.215Z,27.10
2018-07-30T19:50:49.913Z,27.30
2018-07-30T19:53:21.711Z,27.90
2018-07-30T19:55:49.528Z,27.90
2018-07-30T19:58:17.623Z,27.80
2018-07-30T20:00:45.009Z,27.80
2018-07-30T20:03:12.718Z,28.40
2018-07-30T20:05:40.491Z,28.70
2018-07-30T20:08:08.099Z,29.20
2018-07-30T20:10:35.969Z,29.60
2018-07-30T20:13:03.787Z,29.80
2018-07-30T20:15:31.908Z,29.80
2018-07-30T20:17:59.999Z,30.00
2018-07-30T20:20:27.675Z,30.30
2018-07-30T20:22:58.466Z,31.00
2018-07-30T20:25:26.115Z,31.10
2018-07-30T20:27:53.848Z,31.70
2018-07-30T20:30:21.593Z,31.60
2018-07-30T20:32:49.235Z,31.70
2018-07-30T20:35:16.912Z,31.90
2018-07-30T20:37:45.335Z,32.20
2018-07-30T20:40:13.238Z,33.10
2018-07-30T20:42:41.204Z,33.00
2018-07-30T20:45:09.147Z,32.70
2018-07-30T20:47:36.838Z,33.10
2018-07-30T20:50:04.600Z,33.50
2018-07-30T20:52:32.291Z,33.70
2018-07-30T20:54:59.966Z,34.40
2018-07-30T20:57:27.618Z,35.10
2018-07-30T20:59:55.485Z,35.30
2018-07-30T21:02:23.238Z,35.80
2018-07-30T21:04:51.091Z,35.70
2018-07-30T21:07:22.582Z,35.90
2018-07-30T21:09:50.186Z,36.20
2018-07-30T21:12:18.013Z,36.00
2018-07-30T21:14:45.654Z,36.50
2018-07-30T21:17:13.421Z,36.70
2018-07-30T21:19:41.075Z,36.90
2018-07-30T21:22:08.854Z,36.80
2018-07-30T21:24:36.609Z,36.50
2018-07-30T21:27:04.396Z,36.40
2018-07-30T21:29:32.130Z,36.40
2018-07-30T21:31:59.778Z,36.80
2018-07-30T21:34:27.338Z,36.50
2018-07-30T21:36:54.880Z,36.10
2018-07-30T21:39:22.694Z,36.30
2018-07-30T21:41:50.312Z,36.50
2018-07-30T21:44:18.198Z,37.70
2018-07-30T21:46:45.822Z,37.10
2018-07-30T21:49:13.511Z,37.20
2018-07-30T21:51:42.124Z,37.10
2018-07-30T21:54:09.740Z,37.20
2018-07-30T21:56:37.373Z,38.00
2018-07-30T21:59:05.124Z,38.90
2018-07-30T22:01:32.838Z,39.10
2018-07-30T22:04:01.433Z,39.30
2018-07-30T22:06:29.132Z,39.50
2018-07-30T22:08:57.067Z,39.60
2018-07-30T22:11:28.715Z,40.00
2018-07-30T22:13:58.365Z,40.10
2018-07-30T22:16:26.119Z,40.20
2018-07-30T22:18:53.813Z,40.40
2018-07-30T22:21:21.517Z,40.70
2018-07-30T22:23:49.262Z,40.70
2018-07-30T22:26:18.218Z,40.50
2018-07-30T22:28:46.887Z,40.70
2018-07-30T22:31:15.664Z,41.20
2018-07-30T22:33:43.408Z,41.20
2018-07-30T22:36:11.095Z,41.40
2018-07-30T22:38:38.880Z,42.20
2018-07-30T22:41:06.632Z,42.20
2018-07-30T22:43:34.301Z,42.20
2018-07-30T22:46:02.059Z,42.50
2018-07-30T22:48:29.806Z,42.70
2018-07-30T22:50:57.439Z,42.20
2018-07-30T22:53:25.155Z,42.90
2018-07-30T22:55:52.876Z,42.60
2018-07-30T22:58:20.778Z,43.20
2018-07-30T23:00:48.429Z,43.50
2018-07-30T23:03:16.074Z,43.80
2018-07-30T23:05:43.850Z,44.40
2018-07-30T23:08:11.690Z,43.80
2018-07-30T23:10:40.138Z,44.40
2018-07-30T23:13:07.902Z,43.90
2018-07-30T23:15:35.696Z,44.30
2018-07-30T23:18:03.459Z,44.30
2018-07-30T23:20:31.849Z,44.10
2018-07-30T23:22:59.566Z,44.20
2018-07-30T23:25:27.257Z,44.40
2018-07-30T23:27:54.951Z,44.80
2018-07-30T23:30:23.842Z,45.10
2018-07-30T23:32:52.624Z,45.10
2018-07-30T23:35:20.223Z,45.80
2018-07-30T23:37:47.963Z,46.10
2018-07-30T23:40:17.656Z,45.80
2018-07-30T23:42:45.365Z,45.80
2018-07-30T23:45:16.646Z,45.90
2018-07-30T23:47:44.301Z,46.30
2018-07-30T23:50:12.105Z,46.30
2018-07-30T23:52:40.766Z,46.80
2018-07-30T23:55:08.550Z,46.70
2018-07-30T23:57:36.147Z,46.60
